Time;durP1;ratioP1;P1;durP2;ratioP2;P2;SDS_P1;SDS_P2;PMS_P1;PMS_P2;Temp;Humidity;BMP_temperature;BMP_pressure;BME280_temperature;BME280_humidity;BME280_pressure;Samples;Min_cycle;Max_cycle;Signal;HPM_P1;HPM_P2
2022/04/14 00:01:59;;;;;;;33.85;17.48;;;;;;;10.32;nan;101801.47;5052022;28;20033;-60
2022/04/14 00:04:24;;;;;;;43.75;20.42;;;;;;;10.22;nan;101784.09;5051878;28;20482;-57
2022/04/14 00:06:50;;;;;;;44.85;19.60;;;;;;;10.68;nan;101867.53;5052248;28;20041;-59
2022/04/14 00:09:15;;;;;;;45.33;20.88;;;;;;;10.33;nan;101812.00;5051832;28;20036;-60
2022/04/14 00:11:41;;;;;;;42.67;19.42;;;;;;;10.61;nan;101859.78;5052112;28;20041;-58
2022/04/14 00:14:06;;;;;;;39.83;18.55;;;;;;;10.27;nan;101805.94;5051927;28;20066;-58
2022/04/14 00:16:32;;;;;;;37.85;18.85;;;;;;;10.19;nan;101792.91;5035856;28;20041;-55
2022/04/14 00:18:57;;;;;;;37.30;18.48;;;;;;;10.51;nan;101845.88;5055924;28;20037;-58
2022/04/14 00:21:23;;;;;;;38.55;17.95;;;;;;;10.30;nan;101812.03;5054462;28;20036;-60
2022/04/14 00:23:48;;;;;;;32.33;16.55;;;;;;;10.57;nan;101864.22;5056115;28;20477;-60
2022/04/14 00:26:14;;;;;;;26.33;16.02;;;;;;;10.37;nan;101826.81;5055797;28;20048;-57
2022/04/14 00:28:39;;;;;;;28.33;15.05;;;;;;;10.14;nan;101785.09;5055817;28;20041;-59
2022/04/14 00:31:04;;;;;;;29.75;15.43;;;;;;;10.21;nan;101791.13;5037768;28;20128;-59
2022/04/14 00:33:30;;;;;;;24.48;15.45;;;;;;;10.51;nan;101840.63;5055552;28;20037;-59
2022/04/14 00:35:56;;;;;;;33.78;17.73;;;;;;;10.63;nan;101858.84;5054275;28;20474;-59
2022/04/14 00:38:21;;;;;;;28.67;17.45;;;;;;;10.22;nan;101784.09;5055494;28;20044;-59
2022/04/14 00:40:48;;;;;;;25.92;17.33;;;;;;;10.22;nan;101786.72;5055681;28;20461;-59
2022/04/14 00:43:13;;;;;;;27.27;16.63;;;;;;;10.58;nan;101858.06;5055558;28;20033;-60
2022/04/14 00:45:39;;;;;;;28.65;18.05;;;;;;;10.23;nan;101802.50;5054102;28;20043;-60
2022/04/14 00:48:04;;;;;;;34.25;20.05;;;;;;;10.55;nan;101860.75;5055492;28;20099;-59
2022/04/14 00:50:29;;;;;;;27.92;18.20;;;;;;;10.48;nan;101848.56;5055371;28;20047;-59
2022/04/14 00:52:55;;;;;;;27.98;17.98;;;;;;;10.49;nan;101858.22;5054074;28;20473;-62
2022/04/14 00:55:20;;;;;;;32.55;19.60;;;;;;;10.36;nan;101858.44;5053936;28;20328;-59
2022/04/14 00:57:46;;;;;;;32.72;20.13;;;;;;;10.24;nan;101856.88;5054314;28;20493;-60
2022/04/14 01:00:11;;;;;;;46.15;22.35;;;;;;;9.87;nan;101795.09;5055031;28;20090;-60
2022/04/14 01:02:37;;;;;;;36.70;21.05;;;;;;;10.21;nan;101880.59;5053844;28;20040;-60
2022/04/14 01:05:04;;;;;;;34.22;20.52;;;;;;;9.92;nan;101809.09;5054881;28;20037;-60
2022/04/14 01:07:29;;;;;;;31.30;18.15;;;;;;;10.06;nan;101842.19;5037604;28;20029;-59
2022/04/14 01:09:55;;;;;;;29.70;19.13;;;;;;;10.19;nan;101852.56;5053700;28;20484;-59
2022/04/14 01:12:21;;;;;;;33.50;17.55;;;;;;;9.87;nan;101797.72;5054834;28;20029;-60
2022/04/14 01:14:46;;;;;;;23.90;15.55;;;;;;;9.93;nan;101806.41;5070481;28;20128;-60
2022/04/14 01:17:12;;;;;;;27.45;16.15;;;;;;;9.94;nan;101823.06;5054763;28;20033;-59
2022/04/14 01:19:38;;;;;;;24.80;15.63;;;;;;;10.16;nan;101869.25;5054784;28;20051;-59
2022/04/14 01:22:12;;;;;;;27.52;17.13;;;;;;;9.80;nan;101811.88;5053349;28;20029;-59
2022/04/14 01:24:37;;;;;;;22.75;15.80;;;;;;;9.66;nan;101796.25;5054791;28;20029;-60
2022/04/14 01:27:03;;;;;;;20.63;14.45;;;;;;;9.90;nan;101858.19;5052704;28;20044;-60
2022/04/14 01:29:29;;;;;;;21.85;15.30;;;;;;;9.86;nan;101872.28;5054952;28;20070;-57
2022/04/14 01:31:55;;;;;;;24.40;14.45;;;;;;;9.71;nan;101861.94;5054641;28;20048;-60
2022/04/14 01:34:20;;;;;;;24.33;15.55;;;;;;;9.63;nan;101876.03;5054321;28;20041;-58
2022/04/14 01:36:46;;;;;;;22.00;14.85;;;;;;;9.42;nan;101865.81;5053291;28;20040;-58
2022/04/14 01:39:13;;;;;;;23.25;15.90;;;;;;;9.05;nan;101818.03;5054538;28;20496;-59
2022/04/14 01:41:39;;;;;;;20.73;15.10;;;;;;;9.38;nan;101887.72;5053307;28;20064;-58
2022/04/14 01:44:05;;;;;;;19.58;15.43;;;;;;;9.36;nan;101888.66;5053001;28;20040;-59
2022/04/14 01:46:30;;;;;;;18.05;14.55;;;;;;;8.89;nan;101795.47;5054007;28;20049;-59
2022/04/14 01:48:56;;;;;;;20.25;16.05;;;;;;;9.26;nan;101876.47;5053876;28;20037;-57
2022/04/14 01:51:21;;;;;;;19.70;15.35;;;;;;;9.20;nan;101872.16;5053989;28;20052;-60
2022/04/14 01:53:46;;;;;;;24.08;15.82;;;;;;;9.13;nan;101864.38;5053837;28;20065;-60
2022/04/14 01:56:12;;;;;;;21.73;16.58;;;;;;;8.74;nan;101815.72;5053947;28;20037;-60
2022/04/14 01:58:37;;;;;;;20.80;16.00;;;;;;;8.66;nan;101822.81;5053969;28;20045;-59
2022/04/14 02:01:03;;;;;;;22.98;17.25;;;;;;;8.98;nan;101874.16;5053912;28;20033;-60
2022/04/14 02:03:28;;;;;;;24.27;17.17;;;;;;;8.57;nan;101817.63;5053779;28;20103;-60
2022/04/14 02:05:53;;;;;;;22.77;17.15;;;;;;;8.58;nan;101837.75;5052396;28;20526;-60
2022/04/14 02:08:19;;;;;;;21.17;17.15;;;;;;;8.87;nan;101885.63;5053028;28;20116;-60
2022/04/14 02:10:44;;;;;;;21.65;17.00;;;;;;;8.43;nan;101821.22;5054040;28;20124;-59
2022/04/14 02:13:09;;;;;;;24.45;19.13;;;;;;;8.78;nan;101890.97;5053913;28;20394;-58
2022/04/14 02:15:35;;;;;;;25.88;19.67;;;;;;;8.36;nan;101822.19;5053481;28;20033;-60
2022/04/14 02:18:00;;;;;;;23.73;18.52;;;;;;;8.66;nan;101878.81;5053600;28;20130;-60
2022/04/14 02:20:25;;;;;;;27.05;20.02;;;;;;;8.19;nan;101824.03;5053363;28;20075;-58
2022/04/14 02:22:51;;;;;;;23.25;17.08;;;;;;;8.23;nan;101832.75;5053445;28;20064;-59
2022/04/14 02:25:16;;;;;;;23.95;18.40;;;;;;;8.15;nan;101819.69;5053456;28;20119;-59
2022/04/14 02:27:41;;;;;;;27.50;18.85;;;;;;;8.49;nan;101891.19;5053527;28;20041;-59
2022/04/14 02:30:07;;;;;;;24.67;19.33;;;;;;;8.22;nan;101846.75;5053433;28;20051;-59
2022/04/14 02:32:33;;;;;;;25.35;19.15;;;;;;;8.30;nan;101881.69;5052106;28;20044;-59
2022/04/14 02:34:58;;;;;;;23.70;19.00;;;;;;;8.36;nan;101890.41;5053302;28;20789;-60
2022/04/14 02:37:23;;;;;;;26.95;20.58;;;;;;;8.30;nan;101882.56;5053519;28;20033;-60
2022/04/14 02:39:49;;;;;;;26.65;20.92;;;;;;;8.27;nan;101885.19;5052503;28;20037;-59
2022/04/14 02:42:14;;;;;;;29.02;21.65;;;;;;;8.25;nan;101894.81;5053249;28;20102;-58
2022/04/14 02:44:39;;;;;;;32.40;20.48;;;;;;;8.21;nan;101898.31;5051738;28;20041;-58
2022/04/14 02:47:05;;;;;;;29.33;21.33;;;;;;;8.20;nan;101895.72;5052993;28;20040;-60
2022/04/14 02:49:30;;;;;;;32.17;21.67;;;;;;;7.86;nan;101832.09;5051711;28;20106;-58
2022/04/14 02:51:55;;;;;;;28.45;21.90;;;;;;;8.18;nan;101889.59;5052803;28;20052;-59
2022/04/14 02:54:20;;;;;;;30.23;22.35;;;;;;;8.14;nan;101888.75;5052941;28;20064;-59
2022/04/14 02:56:46;;;;;;;34.47;23.15;;;;;;;7.75;nan;101829.53;5052807;28;20033;-61
2022/04/14 02:59:11;;;;;;;32.30;22.38;;;;;;;8.10;nan;101879.16;5052947;28;20051;-59
2022/04/14 03:01:36;;;;;;;34.08;22.98;;;;;;;8.02;nan;101886.19;5052733;28;20474;-59
2022/04/14 03:04:02;;;;;;;32.88;22.77;;;;;;;8.05;nan;101888.81;5051310;28;20036;-59
2022/04/14 03:06:27;;;;;;;30.58;23.40;;;;;;;8.03;nan;101887.91;5052835;28;20087;-59
2022/04/14 03:08:53;;;;;;;33.53;24.13;;;;;;;8.01;nan;101891.44;5052722;28;20462;-59
2022/04/14 03:11:18;;;;;;;35.38;24.02;;;;;;;7.63;nan;101831.34;5052790;28;20032;-59
2022/04/14 03:13:43;;;;;;;33.50;24.77;;;;;;;7.99;nan;101894.09;5051396;28;20044;-59
2022/04/14 03:16:09;;;;;;;33.55;25.08;;;;;;;7.97;nan;101882.72;5051166;28;20108;-59
2022/04/14 03:18:34;;;;;;;39.83;26.77;;;;;;;7.86;nan;101869.66;5051170;28;20033;-56
2022/04/14 03:21:01;;;;;;;34.85;24.80;;;;;;;7.99;nan;101896.72;5052330;28;20032;-57
2022/04/14 03:23:26;;;;;;;37.53;26.35;;;;;;;8.00;nan;101887.09;5051119;28;20040;-56
2022/04/14 03:25:52;;;;;;;37.17;25.58;;;;;;;8.03;nan;101908.91;5052572;28;20119;-59
2022/04/14 03:28:17;;;;;;;37.80;25.85;;;;;;;8.04;nan;101910.66;5052494;28;20033;-58
2022/04/14 03:30:42;;;;;;;42.70;27.02;;;;;;;8.03;nan;101908.03;5052050;28;20067;-57
2022/04/14 03:33:08;;;;;;;39.22;26.42;;;;;;;7.70;nan;101848.78;5052275;28;20033;-59
2022/04/14 03:35:33;;;;;;;41.85;24.48;;;;;;;7.97;nan;101898.44;5052397;28;20049;-59
2022/04/14 03:37:58;;;;;;;35.83;26.55;;;;;;;7.94;nan;101895.84;5052247;28;20033;-59
2022/04/14 03:40:24;;;;;;;36.08;25.25;;;;;;;7.60;nan;101858.44;5052381;28;20516;-57
2022/04/14 03:42:49;;;;;;;34.65;24.80;;;;;;;7.54;nan;101847.97;5052228;28;20074;-57
2022/04/14 03:45:14;;;;;;;37.60;26.40;;;;;;;7.81;nan;101905.53;5052043;28;20063;-60
2022/04/14 03:47:40;;;;;;;38.40;25.80;;;;;;;7.86;nan;101908.09;5052096;28;20492;-59
2022/04/14 03:50:06;;;;;;;32.55;25.05;;;;;;;7.46;nan;101844.53;5051821;28;20083;-59
2022/04/14 03:52:31;;;;;;;37.17;25.60;;;;;;;7.64;nan;101886.38;5050558;28;20057;-60
2022/04/14 03:54:57;;;;;;;38.38;26.08;;;;;;;7.63;nan;101881.13;5067490;28;20404;-56
2022/04/14 03:57:23;;;;;;;36.45;24.70;;;;;;;7.59;nan;101880.25;5050888;28;20519;-58
2022/04/14 03:59:48;;;;;;;35.90;26.48;;;;;;;7.61;nan;101893.38;5050853;28;20041;-59
2022/04/14 04:02:13;;;;;;;33.25;25.83;;;;;;;7.28;nan;101840.22;5052138;28;20033;-59
2022/04/14 04:04:38;;;;;;;37.63;26.50;;;;;;;7.52;nan;101891.66;5052128;28;20033;-60
2022/04/14 04:07:05;;;;;;;39.25;26.65;;;;;;;7.49;nan;101886.44;5051961;28;20039;-59
2022/04/14 04:09:32;;;;;;;38.20;26.48;;;;;;;7.56;nan;101903.00;5034392;28;20060;-58
2022/04/14 04:11:58;;;;;;;35.97;26.13;;;;;;;7.38;nan;101885.59;5051887;28;20041;-59
2022/04/14 04:14:23;;;;;;;37.58;25.08;;;;;;;7.06;nan;101828.06;5051952;28;20039;-59
2022/04/14 04:16:49;;;;;;;35.38;27.02;;;;;;;6.97;nan;101830.69;5051777;28;20041;-59
2022/04/14 04:19:14;;;;;;;36.33;26.70;;;;;;;7.30;nan;101885.59;5051608;28;20032;-58
2022/04/14 04:21:40;;;;;;;36.60;26.33;;;;;;;7.03;nan;101845.53;5050628;28;20378;-60
2022/04/14 04:24:05;;;;;;;39.50;27.35;;;;;;;7.38;nan;101905.66;5051693;28;20090;-59
2022/04/14 04:26:31;;;;;;;37.03;26.50;;;;;;;7.38;nan;101904.78;5050160;28;20044;-59
2022/04/14 04:28:56;;;;;;;39.60;27.38;;;;;;;7.00;nan;101838.53;5033770;28;20059;-60
2022/04/14 04:31:22;;;;;;;44.60;28.85;;;;;;;7.38;nan;101911.78;5051560;28;20547;-59
2022/04/14 04:33:51;;;;;;;36.13;26.02;;;;;;;7.31;nan;101905.69;5051510;28;20167;-60
2022/04/14 04:36:19;;;;;;;43.05;28.05;;;;;;;6.90;nan;101844.66;5051624;28;20044;-59
2022/04/14 04:38:44;;;;;;;41.95;28.17;;;;;;;6.72;nan;101797.56;5051349;28;20490;-60
2022/04/14 04:41:09;;;;;;;40.85;28.45;;;;;;;6.96;nan;101855.13;5051587;28;20039;-58
2022/04/14 04:43:35;;;;;;;41.65;27.00;;;;;;;7.34;nan;101921.38;5051450;28;20041;-58
2022/04/14 04:46:00;;;;;;;38.75;28.17;;;;;;;7.34;nan;101923.13;5049858;28;20444;-60
2022/04/14 04:48:25;;;;;;;39.72;27.45;;;;;;;7.35;nan;101927.50;5051852;28;20043;-59
2022/04/14 04:50:51;;;;;;;43.78;27.90;;;;;;;7.24;nan;101905.69;5050013;28;20068;-60
2022/04/14 04:53:16;;;;;;;41.55;27.10;;;;;;;7.34;nan;101926.63;5050084;28;20079;-60
2022/04/14 04:55:41;;;;;;;42.53;26.33;;;;;;;7.34;nan;101934.47;5050186;28;20037;-58
2022/04/14 04:58:07;;;;;;;37.20;26.40;;;;;;;7.02;nan;101878.66;5050238;28;20063;-58
2022/04/14 05:00:32;;;;;;;40.60;27.45;;;;;;;7.14;nan;101911.81;5051152;28;20325;-58
2022/04/14 05:02:58;;;;;;;44.45;27.45;;;;;;;6.92;nan;101876.91;5053599;28;20078;-58
2022/04/14 05:05:24;;;;;;;40.33;26.33;;;;;;;7.21;nan;101961.53;5055142;28;20044;-55
2022/04/14 05:07:50;;;;;;;41.72;27.88;;;;;;;7.26;nan;101944.09;5053312;28;20040;-59
2022/04/14 05:10:15;;;;;;;42.47;27.75;;;;;;;7.02;nan;101907.47;5037197;28;20025;-59
2022/04/14 05:12:41;;;;;;;45.60;27.83;;;;;;;7.28;nan;101960.69;5055265;28;20169;-57
2022/04/14 05:15:06;;;;;;;39.80;27.83;;;;;;;7.30;nan;101948.44;5054958;28;20036;-59
2022/04/14 05:17:32;;;;;;;38.83;27.73;;;;;;;7.36;nan;101950.19;5054775;28;20497;-57
2022/04/14 05:19:57;;;;;;;43.85;28.52;;;;;;;7.41;nan;101958.94;5054663;28;20040;-57
2022/04/14 05:22:22;;;;;;;41.33;28.35;;;;;;;7.41;nan;101955.44;5054776;28;20033;-59
2022/04/14 05:24:48;;;;;;;42.45;27.38;;;;;;;7.10;nan;101886.50;5054220;28;20041;-58
2022/04/14 05:27:13;;;;;;;43.90;28.10;;;;;;;7.54;nan;101954.50;5054250;28;20048;-58
2022/04/14 05:29:38;;;;;;;42.40;29.08;;;;;;;7.26;nan;101888.22;5054444;28;20539;-59
2022/04/14 05:32:04;;;;;;;45.92;27.75;;;;;;;7.36;nan;101889.94;5054220;28;20064;-58
2022/04/14 05:34:29;;;;;;;43.42;28.02;;;;;;;7.77;nan;101956.19;5054591;28;20044;-58
2022/04/14 05:36:54;;;;;;;37.50;26.95;;;;;;;7.83;nan;101955.31;5054282;28;20029;-57
2022/04/14 05:39:20;;;;;;;42.72;28.55;;;;;;;7.84;nan;101951.81;5054216;28;20033;-58
2022/04/14 05:41:46;;;;;;;41.25;28.73;;;;;;;7.82;nan;101933.47;5036109;28;20041;-59
2022/04/14 05:44:14;;;;;;;44.72;29.42;;;;;;;8.09;nan;101949.94;5054356;28;20064;-60
2022/04/14 05:46:39;;;;;;;49.05;31.45;;;;;;;8.32;nan;101962.09;5053962;28;20041;-60
2022/04/14 05:49:04;;;;;;;43.50;28.25;;;;;;;8.47;nan;101961.16;5054426;28;20078;-59
2022/04/14 05:51:30;;;;;;;46.42;28.67;;;;;;;8.65;nan;101962.78;5052699;28;20382;-59
2022/04/14 05:53:55;;;;;;;39.00;26.20;;;;;;;8.77;nan;101958.34;5053909;28;20401;-58
2022/04/14 05:56:20;;;;;;;39.85;27.13;;;;;;;8.01;nan;101841.63;5052455;28;20515;-59
2022/04/14 05:58:46;;;;;;;34.30;24.60;;;;;;;9.04;nan;101970.38;5053892;28;20490;-59
2022/04/14 06:01:12;;;;;;;37.53;24.75;;;;;;;9.21;nan;101955.34;5052782;28;20062;-58
2022/04/14 06:03:38;;;;;;;37.05;23.80;;;;;;;9.31;nan;101959.63;5054242;28;20044;-60
2022/04/14 06:06:04;;;;;;;34.28;24.05;;;;;;;9.14;nan;101898.50;5053836;28;20064;-59
2022/04/14 06:08:30;;;;;;;29.02;21.23;;;;;;;9.28;nan;101896.59;5053762;28;20033;-57
2022/04/14 06:10:55;;;;;;;26.30;20.23;;;;;;;9.82;nan;101967.84;5053555;28;20040;-60
2022/04/14 06:13:20;;;;;;;32.22;19.95;;;;;;;9.59;nan;101915.53;5052580;28;20037;-60
2022/04/14 06:15:46;;;;;;;25.98;18.50;;;;;;;10.03;nan;101965.84;5053808;28;20037;-58
2022/04/14 06:18:11;;;;;;;25.02;18.10;;;;;;;10.15;nan;101965.75;5052637;28;20119;-60
2022/04/14 06:20:36;;;;;;;24.48;18.30;;;;;;;10.31;nan;101968.16;5052504;28;20363;-58
2022/04/14 06:23:02;;;;;;;25.48;17.38;;;;;;;10.04;nan;101890.44;5053699;28;20484;-59
2022/04/14 06:25:27;;;;;;;27.10;17.35;;;;;;;10.65;nan;101967.66;5053515;28;20040;-59
2022/04/14 06:27:55;;;;;;;24.95;16.85;;;;;;;10.63;nan;101939.59;5053495;28;20036;-57
2022/04/14 06:30:20;;;;;;;21.27;16.20;;;;;;;10.53;nan;101903.81;5053439;28;20037;-59
2022/04/14 06:33:02;;;;;;;21.58;15.32;;;;;;;10.73;nan;101913.13;5053575;28;20596;-59
2022/04/14 06:35:28;;;;;;;20.38;15.93;;;;;;;10.83;nan;101907.72;5053387;28;20029;-59
2022/04/14 06:37:53;;;;;;;26.10;14.88;;;;;;;11.35;nan;101985.00;5053031;28;20035;-59
2022/04/14 06:40:21;;;;;;;21.88;14.60;;;;;;;11.45;nan;101993.59;5053329;28;20060;-58
2022/04/14 06:42:46;;;;;;;20.02;13.85;;;;;;;11.39;nan;101956.78;5053007;28;20115;-59
2022/04/14 06:45:12;;;;;;;21.70;15.25;;;;;;;11.81;nan;101992.94;5035311;28;20190;-56
2022/04/14 06:47:37;;;;;;;20.02;14.15;;;;;;;12.06;nan;102010.03;5052715;28;20041;-59
2022/04/14 06:50:02;;;;;;;24.95;14.60;;;;;;;11.90;nan;101957.59;5053048;28;20041;-59
2022/04/14 06:52:28;;;;;;;20.25;14.30;;;;;;;11.99;nan;101960.94;5052921;28;20053;-60
2022/04/14 06:54:53;;;;;;;21.27;13.25;;;;;;;12.17;nan;101971.09;5051190;28;20041;-58
2022/04/14 06:57:20;;;;;;;17.25;13.27;;;;;;;12.87;nan;102017.94;5052336;28;20040;-58
2022/04/14 06:59:46;;;;;;;13.57;10.90;;;;;;;13.31;nan;102034.56;5052933;28;20025;-58
2022/04/14 07:02:11;;;;;;;15.70;12.10;;;;;;;13.72;nan;102033.53;5052300;28;20052;-59
2022/04/14 07:04:37;;;;;;;18.95;12.35;;;;;;;13.67;nan;101979.84;5052769;28;20474;-59
2022/04/14 07:07:04;;;;;;;12.55;10.60;;;;;;;14.35;nan;102042.34;5052628;28;20040;-59
2022/04/14 07:09:32;;;;;;;13.52;10.55;;;;;;;14.59;nan;102051.38;5051358;28;20033;-60
2022/04/14 07:11:59;;;;;;;14.90;11.00;;;;;;;14.83;nan;102069.16;5052283;28;20065;-59
2022/04/14 07:14:26;;;;;;;14.82;9.85;;;;;;;15.06;nan;102055.22;5051193;28;20039;-58
2022/04/14 07:16:51;;;;;;;14.65;10.15;;;;;;;15.40;nan;102057.63;5052206;28;20116;-60
2022/04/14 07:19:16;;;;;;;15.50;10.98;;;;;;;15.81;nan;102064.22;5052667;28;20460;-59
2022/04/14 07:21:42;;;;;;;18.83;10.38;;;;;;;15.91;nan;102008.09;5052639;28;20524;-62
2022/04/14 07:24:07;;;;;;;11.18;9.20;;;;;;;16.57;nan;102071.22;5051993;28;20482;-61
2022/04/14 07:26:32;;;;;;;14.32;10.18;;;;;;;17.00;nan;102075.72;5050655;28;20041;-59
2022/04/14 07:28:58;;;;;;;13.25;8.77;;;;;;;16.87;nan;102030.13;5051384;28;20123;-59
2022/04/14 07:31:23;;;;;;;14.43;9.20;;;;;;;17.35;nan;102069.88;5050651;28;20473;-60
2022/04/14 07:33:48;;;;;;;14.23;9.77;;;;;;;17.94;nan;102071.84;5050220;28;20053;-59
2022/04/14 07:36:18;;;;;;;12.82;9.20;;;;;;;17.97;nan;102015.75;5050716;28;20068;-63
2022/04/14 07:38:43;;;;;;;12.93;8.88;;;;;;;18.05;nan;102034.94;5049823;28;20032;-59
2022/04/14 07:41:09;;;;;;;14.80;8.45;;;;;;;18.63;nan;102090.97;5049774;28;20056;-59
2022/04/14 07:43:34;;;;;;;16.50;8.38;;;;;;;18.76;nan;102106.34;5051545;28;20045;-60
2022/04/14 07:45:59;;;;;;;14.68;8.18;;;;;;;18.62;nan;102055.44;5051184;28;20627;-61
2022/04/14 07:48:25;;;;;;;12.55;8.70;;;;;;;18.90;nan;102101.22;5051327;28;20485;-59
2022/04/14 07:50:50;;;;;;;12.52;9.25;;;;;;;19.24;nan;102104.94;5049364;28;20037;-63
2022/04/14 07:53:15;;;;;;;13.70;8.95;;;;;;;19.09;nan;102110.06;5050702;28;20072;-60
2022/04/14 07:55:41;;;;;;;13.18;8.48;;;;;;;19.08;nan;102048.78;5049322;28;20044;-60
2022/04/14 07:58:07;;;;;;;13.68;8.77;;;;;;;19.84;nan;102101.94;5050602;28;20068;-61
2022/04/14 08:00:37;;;;;;;9.85;7.32;;;;;;;20.03;nan;102069.78;5066601;28;20048;-60
2022/04/14 08:03:03;;;;;;;14.65;8.02;;;;;;;20.31;nan;102061.22;5033114;28;20062;-60
2022/04/14 08:05:34;;;;;;;11.48;7.38;;;;;;;20.57;nan;102104.34;5049255;28;20032;-62
2022/04/14 08:08:00;;;;;;;11.73;7.45;;;;;;;20.45;nan;102082.72;5050431;28;20025;-60
2022/04/14 08:10:26;;;;;;;12.60;8.13;;;;;;;20.59;nan;102110.47;5050770;28;20033;-61
2022/04/14 08:12:52;;;;;;;10.02;6.93;;;;;;;20.55;nan;102055.38;5050027;28;20033;-61
2022/04/14 08:15:17;;;;;;;10.48;7.70;;;;;;;21.14;nan;102104.75;5049619;28;20083;-62
2022/04/14 08:17:45;;;;;;;10.88;7.25;;;;;;;21.31;nan;102116.25;5044879;28;20446;-60
2022/04/14 08:20:13;;;;;;;10.38;7.50;;;;;;;21.42;nan;102062.06;5047574;28;20024;-63
2022/04/14 08:22:51;;;;;;;10.60;7.65;;;;;;;21.83;nan;102114.06;5048337;28;20484;-62
2022/04/14 08:25:21;;;;;;;10.73;6.78;;;;;;;21.85;nan;102065.75;5047243;28;20025;-60
2022/04/14 08:27:47;;;;;;;8.57;5.97;;;;;;;22.21;nan;102121.69;5045733;28;20064;-60
2022/04/14 08:30:14;;;;;;;8.52;5.30;;;;;;;22.05;nan;102078.84;5044211;28;20041;-59
2022/04/14 08:32:39;;;;;;;9.68;6.25;;;;;;;22.14;nan;102070.25;5047038;28;20033;-60
2022/04/14 08:35:05;;;;;;;8.65;6.47;;;;;;;22.38;nan;102073.25;5047696;28;20036;-60
2022/04/14 08:37:30;;;;;;;8.35;5.95;;;;;;;22.56;nan;102064.03;5053478;28;20041;-60
2022/04/14 08:39:59;;;;;;;7.15;5.25;;;;;;;22.58;nan;102075.53;5051935;28;20110;-60
2022/04/14 08:42:26;;;;;;;14.05;6.35;;;;;;;22.83;nan;102066.78;5053250;28;20040;-62
2022/04/14 08:44:57;;;;;;;8.60;6.15;;;;;;;23.21;nan;102094.72;5052355;28;20112;-61
2022/04/14 08:47:24;;;;;;;10.73;6.60;;;;;;;23.09;nan;102047.16;5054267;28;20037;-61
2022/04/14 08:49:50;;;;;;;10.10;6.57;;;;;;;23.57;nan;102093.28;5035805;28;20060;-60
2022/04/14 08:52:17;;;;;;;10.88;6.57;;;;;;;23.53;nan;102063.94;5053834;28;20052;-62
2022/04/14 08:54:43;;;;;;;7.47;6.20;;;;;;;23.92;nan;102043.34;5054057;28;20036;-61
2022/04/14 08:57:09;;;;;;;9.93;6.00;;;;;;;;;;5054213;28;20430;-62
2022/04/14 08:59:35;;;;;;;7.63;5.72;;;;;;;24.29;nan;102082.91;5054054;28;20116;-61
2022/04/14 09:02:03;;;;;;;5.85;4.90;;;;;;;25.03;nan;102092.84;5052912;28;20393;-61
2022/04/14 09:04:29;;;;;;;5.70;4.47;;;;;;;25.34;nan;102088.72;5053621;28;20039;-62
2022/04/14 09:06:54;;;;;;;8.95;4.97;;;;;;;25.14;nan;102047.97;5052254;28;20037;-62
2022/04/14 09:09:20;;;;;;;5.22;4.45;;;;;;;25.06;nan;102092.63;5052934;28;20040;-60
2022/04/14 09:11:45;;;;;;;4.97;4.25;;;;;;;24.69;nan;102091.72;5053896;28;20039;-61
2022/04/14 09:14:11;;;;;;;8.18;4.70;;;;;;;24.19;nan;102054.94;5053943;28;20037;-61
2022/04/14 09:16:36;;;;;;;6.85;5.60;;;;;;;24.10;nan;102101.31;5053647;28;20533;-62
2022/04/14 09:19:03;;;;;;;9.55;4.80;;;;;;;24.14;nan;102104.66;5053703;28;20090;-63
2022/04/14 09:21:28;;;;;;;6.50;4.60;;;;;;;24.15;nan;102122.50;5052476;28;20032;-63
2022/04/14 09:23:53;;;;;;;6.70;5.35;;;;;;;23.86;nan;102093.06;5053876;28;20033;-63
2022/04/14 09:26:23;;;;;;;5.60;4.38;;;;;;;24.12;nan;102101.19;5053135;28;20036;-62
2022/04/14 09:29:05;;;;;;;8.60;5.18;;;;;;;23.71;nan;102145.16;5053802;28;20120;-62
2022/04/14 09:31:46;;;;;;;7.82;5.40;;;;;;;23.30;nan;102101.31;5053271;28;20498;-63
2022/04/14 09:34:11;;;;;;;7.68;5.40;;;;;;;23.44;nan;102145.16;5053329;28;20028;-61
2022/04/14 09:36:36;;;;;;;7.82;5.80;;;;;;;23.14;nan;102141.75;5052224;28;20040;-60
2022/04/14 09:39:06;;;;;;;7.53;5.97;;;;;;;22.30;nan;102099.66;5052023;28;20037;-63
2022/04/14 09:41:41;;;;;;;7.75;5.70;;;;;;;21.63;nan;102143.84;5052060;28;20037;-63
2022/04/14 09:44:11;;;;;;;6.70;5.90;;;;;;;20.49;nan;102109.22;5051656;28;20036;-60
2022/04/14 09:46:41;;;;;;;8.57;5.87;;;;;;;19.62;nan;102042.53;5051430;28;20166;-60
2022/04/14 09:49:09;;;;;;;7.07;5.30;;;;;;;20.41;nan;102083.81;5053005;28;20377;-60
2022/04/14 09:51:39;;;;;;;3.72;3.25;;;;;;;21.56;nan;102125.56;5053494;28;20043;-61
2022/04/14 09:54:13;;;;;;;9.83;4.80;;;;;;;22.66;nan;102143.03;5053987;28;20049;-61
2022/04/14 09:56:51;;;;;;;5.63;4.18;;;;;;;23.50;nan;102151.94;5054134;28;20064;-59
2022/04/14 09:59:18;;;;;;;7.03;4.88;;;;;;;23.90;nan;102102.66;5052863;28;20118;-59
2022/04/14 10:01:44;;;;;;;8.32;6.22;;;;;;;24.54;nan;102158.28;5054024;28;20033;-60
2022/04/14 10:04:29;;;;;;;10.00;5.38;;;;;;;24.55;nan;102153.72;5052332;28;20037;-60
2022/04/14 10:07:06;;;;;;;7.70;5.30;;;;;;;24.82;nan;102153.66;5052789;28;20065;-61
2022/04/14 10:09:31;;;;;;;6.57;4.68;;;;;;;25.49;nan;102146.94;5052785;28;20036;-61
2022/04/14 10:11:57;;;;;;;10.15;5.47;;;;;;;26.52;nan;102160.59;5053427;28;20029;-60
2022/04/14 10:14:24;;;;;;;5.63;4.50;;;;;;;25.66;nan;102150.09;5069207;28;20040;-63
2022/04/14 10:16:50;;;;;;;8.05;6.25;;;;;;;24.52;nan;102160.19;5053568;28;20421;-60
2022/04/14 10:19:15;;;;;;;8.48;5.20;;;;;;;22.35;nan;102153.91;5053628;28;20035;-60
2022/04/14 10:21:43;;;;;;;7.85;5.07;;;;;;;20.99;nan;102130.53;5051175;28;20469;-63
2022/04/14 10:24:08;;;;;;;6.65;4.90;;;;;;;19.58;nan;102099.72;5052061;28;20402;-63
2022/04/14 10:26:34;;;;;;;8.25;4.78;;;;;;;20.40;nan;102124.91;5051249;28;20072;-64
2022/04/14 10:29:06;;;;;;;6.80;4.82;;;;;;;21.95;nan;102150.03;5052480;28;20099;-61
2022/04/14 10:31:35;;;;;;;7.72;4.60;;;;;;;22.80;nan;102145.72;5052029;28;20051;-62
2022/04/14 10:34:04;;;;;;;7.25;4.32;;;;;;;23.07;nan;102116.25;5050873;28;20121;-63
2022/04/14 10:36:31;;;;;;;8.38;5.13;;;;;;;24.02;nan;102155.56;5051018;28;20104;-62
2022/04/14 10:38:57;;;;;;;7.47;5.47;;;;;;;24.70;nan;102168.81;5051967;28;20068;-62
2022/04/14 10:41:26;;;;;;;8.85;5.43;;;;;;;24.79;nan;102159.22;5050613;28;20048;-61
2022/04/14 10:43:52;;;;;;;6.55;4.55;;;;;;;23.86;nan;102168.34;5051859;28;20043;-62
2022/04/14 10:46:17;;;;;;;8.50;5.22;;;;;;;23.56;nan;102161.44;5033685;28;20120;-62
2022/04/14 10:48:46;;;;;;;7.32;4.70;;;;;;;24.20;nan;102145.41;5067165;28;20104;-62
2022/04/14 10:51:24;;;;;;;6.38;4.28;;;;;;;24.28;nan;102167.31;5050649;28;20120;-62
2022/04/14 10:54:01;;;;;;;4.65;4.00;;;;;;;24.01;nan;102159.25;5051592;28;20056;-64
2022/04/14 10:56:39;;;;;;;3.53;3.10;;;;;;;24.97;nan;102164.19;5051674;28;20389;-63
2022/04/14 10:59:09;;;;;;;6.05;3.67;;;;;;;25.50;nan;102122.56;5051100;28;20486;-62
2022/04/14 11:01:47;;;;;;;5.38;3.33;;;;;;;25.74;nan;102166.56;5051259;28;20064;-62
2022/04/14 11:04:25;;;;;;;5.15;3.22;;;;;;;26.40;nan;102172.34;5051276;28;20072;-61
2022/04/14 11:06:57;;;;;;;7.38;3.05;;;;;;;26.26;nan;102124.84;5051148;28;20072;-62
2022/04/14 11:09:48;;;;;;;3.40;3.10;;;;;;;27.44;nan;102174.75;5051507;28;20029;-63
2022/04/14 11:12:23;;;;;;;6.75;3.20;;;;;;;27.12;nan;102176.47;5051551;28;20032;-63
2022/04/14 11:14:50;;;;;;;7.35;3.78;;;;;;;26.72;nan;102182.34;5051305;28;20090;-63
2022/04/14 11:17:30;;;;;;;5.45;3.70;;;;;;;27.38;nan;102177.91;5050344;28;20082;-62
2022/04/14 11:19:59;;;;;;;4.93;3.60;;;;;;;27.40;nan;102173.25;5051129;28;20029;-64
2022/04/14 11:22:24;;;;;;;5.32;3.95;;;;;;;27.41;nan;102157.91;5050383;28;20074;-62
2022/04/14 11:24:50;;;;;;;3.92;3.50;;;;;;;27.84;nan;102167.75;5051050;28;20036;-63
2022/04/14 11:27:24;;;;;;;7.00;4.03;;;;;;;27.90;nan;102179.91;5052028;28;20033;-63
2022/04/14 11:29:57;;;;;;;5.07;4.25;;;;;;;27.98;nan;102169.28;5050975;28;20036;-64
2022/04/14 11:32:40;;;;;;;4.68;3.70;;;;;;;27.93;nan;102174.25;5051981;28;20036;-63